sensor_id;sensor_type;location;lat;lon;timestamp;P1;durP1;ratioP1;P2;durP2;ratioP2
48987;SDS011;34799;51.440;-2.534;2022-08-19T00:02:02;0.43;;;0.10;;
48987;SDS011;34799;51.440;-2.534;2022-08-19T00:04:31;0.50;;;0.10;;
48987;SDS011;34799;51.440;-2.534;2022-08-19T00:07:03;0.20;;;0.10;;
48987;SDS011;34799;51.440;-2.534;2022-08-19T00:09:32;0.10;;;0.00;;
48987;SDS011;34799;51.440;-2.534;2022-08-19T00:11:59;0.20;;;0.00;;
48987;SDS011;34799;51.440;-2.534;2022-08-19T00:14:27;0.30;;;0.00;;
48987;SDS011;34799;51.440;-2.534;2022-08-19T00:16:58;0.28;;;0.00;;
48987;SDS011;34799;51.440;-2.534;2022-08-19T00:19:26;0.80;;;0.00;;
48987;SDS011;34799;51.440;-2.534;2022-08-19T00:21:53;1.23;;;0.08;;
48987;SDS011;34799;51.440;-2.534;2022-08-19T00:24:22;0.52;;;0.03;;
48987;SDS011;34799;51.440;-2.534;2022-08-19T00:26:50;0.50;;;0.10;;
48987;SDS011;34799;51.440;-2.534;2022-08-19T00:29:19;1.70;;;0.10;;
48987;SDS011;34799;51.440;-2.534;2022-08-19T00:31:48;2.63;;;0.30;;
48987;SDS011;34799;51.440;-2.534;2022-08-19T00:34:19;1.85;;;0.10;;
48987;SDS011;34799;51.440;-2.534;2022-08-19T00:36:47;1.92;;;0.10;;
48987;SDS011;34799;51.440;-2.534;2022-08-19T00:39:16;8.52;;;0.52;;
48987;SDS011;34799;51.440;-2.534;2022-08-19T00:41:43;1.25;;;0.63;;
48987;SDS011;34799;51.440;-2.534;2022-08-19T00:44:15;1.63;;;0.10;;
48987;SDS011;34799;51.440;-2.534;2022-08-19T00:46:46;2.13;;;0.10;;
48987;SDS011;34799;51.440;-2.534;2022-08-19T00:52:06;0.25;;;0.10;;
48987;SDS011;34799;51.440;-2.534;2022-08-19T00:54:36;1.52;;;0.30;;
48987;SDS011;34799;51.440;-2.534;2022-08-19T00:57:08;0.85;;;0.00;;
48987;SDS011;34799;51.440;-2.534;2022-08-19T00:59:42;4.18;;;0.10;;
48987;SDS011;34799;51.440;-2.534;2022-08-19T01:02:12;2.15;;;0.20;;
48987;SDS011;34799;51.440;-2.534;2022-08-19T01:04:40;4.50;;;0.20;;
48987;SDS011;34799;51.440;-2.534;2022-08-19T01:07:07;3.00;;;0.10;;
48987;SDS011;34799;51.440;-2.534;2022-08-19T01:09:34;5.97;;;0.30;;
48987;SDS011;34799;51.440;-2.534;2022-08-19T01:12:01;5.15;;;0.30;;
48987;SDS011;34799;51.440;-2.534;2022-08-19T01:14:30;7.68;;;0.28;;
48987;SDS011;34799;51.440;-2.534;2022-08-19T01:16:57;2.67;;;0.10;;
48987;SDS011;34799;51.440;-2.534;2022-08-19T01:19:31;2.70;;;0.20;;
48987;SDS011;34799;51.440;-2.534;2022-08-19T01:22:11;2.35;;;0.10;;
48987;SDS011;34799;51.440;-2.534;2022-08-19T01:24:40;3.10;;;0.15;;
48987;SDS011;34799;51.440;-2.534;2022-08-19T01:27:07;1.52;;;0.10;;
48987;SDS011;34799;51.440;-2.534;2022-08-19T01:29:37;1.25;;;0.32;;
48987;SDS011;34799;51.440;-2.534;2022-08-19T01:32:07;1.98;;;0.20;;
48987;SDS011;34799;51.440;-2.534;2022-08-19T01:34:38;4.10;;;0.30;;
48987;SDS011;34799;51.440;-2.534;2022-08-19T01:37:07;2.45;;;0.20;;
48987;SDS011;34799;51.440;-2.534;2022-08-19T01:39:38;2.17;;;0.50;;
48987;SDS011;34799;51.440;-2.534;2022-08-19T01:42:07;2.03;;;0.20;;
48987;SDS011;34799;51.440;-2.534;2022-08-19T01:44:38;2.22;;;0.10;;
48987;SDS011;34799;51.440;-2.534;2022-08-19T01:47:08;1.38;;;0.20;;
48987;SDS011;34799;51.440;-2.534;2022-08-19T01:49:36;1.30;;;0.10;;
48987;SDS011;34799;51.440;-2.534;2022-08-19T01:52:04;2.70;;;0.50;;
48987;SDS011;34799;51.440;-2.534;2022-08-19T01:54:32;2.88;;;0.20;;
48987;SDS011;34799;51.440;-2.534;2022-08-19T01:57:05;2.20;;;0.13;;
48987;SDS011;34799;51.440;-2.534;2022-08-19T01:59:37;1.98;;;0.20;;
48987;SDS011;34799;51.440;-2.534;2022-08-19T02:02:06;6.03;;;0.73;;
48987;SDS011;34799;51.440;-2.534;2022-08-19T02:04:36;2.65;;;0.40;;
48987;SDS011;34799;51.440;-2.534;2022-08-19T02:07:06;1.83;;;0.30;;
48987;SDS011;34799;51.440;-2.534;2022-08-19T02:09:34;1.23;;;0.10;;
48987;SDS011;34799;51.440;-2.534;2022-08-19T02:12:02;4.20;;;0.30;;
48987;SDS011;34799;51.440;-2.534;2022-08-19T02:14:30;4.18;;;0.30;;
48987;SDS011;34799;51.440;-2.534;2022-08-19T02:16:59;4.18;;;0.30;;
48987;SDS011;34799;51.440;-2.534;2022-08-19T02:19:27;1.20;;;0.20;;
48987;SDS011;34799;51.440;-2.534;2022-08-19T02:21:55;2.90;;;0.63;;
48987;SDS011;34799;51.440;-2.534;2022-08-19T02:24:22;2.50;;;0.20;;
48987;SDS011;34799;51.440;-2.534;2022-08-19T02:26:49;1.55;;;0.40;;
48987;SDS011;34799;51.440;-2.534;2022-08-19T02:29:17;3.42;;;0.40;;
48987;SDS011;34799;51.440;-2.534;2022-08-19T02:31:44;3.10;;;0.40;;
48987;SDS011;34799;51.440;-2.534;2022-08-19T02:34:13;4.93;;;0.40;;
48987;SDS011;34799;51.440;-2.534;2022-08-19T02:36:40;1.60;;;0.40;;
48987;SDS011;34799;51.440;-2.534;2022-08-19T02:39:07;2.92;;;0.57;;
48987;SDS011;34799;51.440;-2.534;2022-08-19T02:41:35;2.55;;;0.60;;
48987;SDS011;34799;51.440;-2.534;2022-08-19T02:44:02;3.97;;;0.38;;
48987;SDS011;34799;51.440;-2.534;2022-08-19T02:46:32;3.95;;;0.40;;
48987;SDS011;34799;51.440;-2.534;2022-08-19T02:49:00;3.38;;;0.88;;
48987;SDS011;34799;51.440;-2.534;2022-08-19T02:51:34;4.20;;;0.30;;
48987;SDS011;34799;51.440;-2.534;2022-08-19T02:54:03;4.03;;;0.65;;
48987;SDS011;34799;51.440;-2.534;2022-08-19T02:56:34;6.30;;;0.80;;
48987;SDS011;34799;51.440;-2.534;2022-08-19T02:59:02;2.80;;;0.38;;
48987;SDS011;34799;51.440;-2.534;2022-08-19T03:01:34;5.80;;;0.90;;
48987;SDS011;34799;51.440;-2.534;2022-08-19T03:04:02;3.72;;;0.60;;
48987;SDS011;34799;51.440;-2.534;2022-08-19T03:06:31;6.75;;;0.60;;
48987;SDS011;34799;51.440;-2.534;2022-08-19T03:08:59;4.10;;;0.75;;
48987;SDS011;34799;51.440;-2.534;2022-08-19T03:11:29;2.47;;;0.40;;
48987;SDS011;34799;51.440;-2.534;2022-08-19T03:13:58;7.20;;;0.65;;
48987;SDS011;34799;51.440;-2.534;2022-08-19T03:16:29;6.00;;;0.55;;
48987;SDS011;34799;51.440;-2.534;2022-08-19T03:18:57;8.90;;;0.68;;
48987;SDS011;34799;51.440;-2.534;2022-08-19T03:21:29;4.90;;;0.90;;
48987;SDS011;34799;51.440;-2.534;2022-08-19T03:24:00;6.40;;;0.98;;
48987;SDS011;34799;51.440;-2.534;2022-08-19T03:26:30;7.82;;;0.90;;
48987;SDS011;34799;51.440;-2.534;2022-08-19T03:28:57;5.10;;;0.60;;
48987;SDS011;34799;51.440;-2.534;2022-08-19T03:31:29;3.95;;;1.00;;
48987;SDS011;34799;51.440;-2.534;2022-08-19T03:33:57;7.53;;;0.70;;
48987;SDS011;34799;51.440;-2.534;2022-08-19T03:36:25;5.68;;;0.75;;
48987;SDS011;34799;51.440;-2.534;2022-08-19T03:38:55;10.70;;;0.95;;
48987;SDS011;34799;51.440;-2.534;2022-08-19T03:41:29;8.68;;;1.15;;
48987;SDS011;34799;51.440;-2.534;2022-08-19T03:43:59;8.30;;;1.02;;
48987;SDS011;34799;51.440;-2.534;2022-08-19T03:46:27;9.23;;;1.42;;
48987;SDS011;34799;51.440;-2.534;2022-08-19T03:48:59;7.45;;;0.68;;
48987;SDS011;34799;51.440;-2.534;2022-08-19T03:51:30;6.40;;;0.80;;
48987;SDS011;34799;51.440;-2.534;2022-08-19T03:54:02;11.32;;;1.00;;
48987;SDS011;34799;51.440;-2.534;2022-08-19T03:56:37;10.18;;;1.25;;
48987;SDS011;34799;51.440;-2.534;2022-08-19T03:59:09;12.48;;;1.67;;
48987;SDS011;34799;51.440;-2.534;2022-08-19T04:01:42;11.10;;;1.20;;
48987;SDS011;34799;51.440;-2.534;2022-08-19T04:04:09;11.30;;;1.00;;
48987;SDS011;34799;51.440;-2.534;2022-08-19T04:06:37;14.15;;;1.70;;
48987;SDS011;34799;51.440;-2.534;2022-08-19T04:09:05;11.60;;;1.90;;
48987;SDS011;34799;51.440;-2.534;2022-08-19T04:11:45;8.55;;;1.33;;
48987;SDS011;34799;51.440;-2.534;2022-08-19T04:14:16;13.82;;;1.00;;
48987;SDS011;34799;51.440;-2.534;2022-08-19T04:16:46;9.40;;;1.35;;
48987;SDS011;34799;51.440;-2.534;2022-08-19T04:19:14;11.43;;;1.42;;
48987;SDS011;34799;51.440;-2.534;2022-08-19T04:21:46;9.85;;;1.73;;
48987;SDS011;34799;51.440;-2.534;2022-08-19T04:24:14;11.90;;;1.30;;
48987;SDS011;34799;51.440;-2.534;2022-08-19T04:26:46;10.68;;;1.35;;
48987;SDS011;34799;51.440;-2.534;2022-08-19T04:29:15;12.13;;;1.70;;
48987;SDS011;34799;51.440;-2.534;2022-08-19T04:31:51;11.85;;;1.40;;
48987;SDS011;34799;51.440;-2.534;2022-08-19T04:34:21;8.40;;;1.33;;
48987;SDS011;34799;51.440;-2.534;2022-08-19T04:36:52;9.30;;;1.45;;
48987;SDS011;34799;51.440;-2.534;2022-08-19T04:39:23;12.77;;;2.40;;
48987;SDS011;34799;51.440;-2.534;2022-08-19T04:42:16;8.55;;;1.35;;
48987;SDS011;34799;51.440;-2.534;2022-08-19T04:45:03;13.05;;;2.35;;
48987;SDS011;34799;51.440;-2.534;2022-08-19T04:47:33;9.25;;;1.52;;
48987;SDS011;34799;51.440;-2.534;2022-08-19T04:50:00;8.80;;;1.42;;
48987;SDS011;34799;51.440;-2.534;2022-08-19T04:52:27;8.38;;;1.48;;
48987;SDS011;34799;51.440;-2.534;2022-08-19T04:54:54;9.52;;;1.20;;
48987;SDS011;34799;51.440;-2.534;2022-08-19T04:57:21;13.57;;;1.42;;
48987;SDS011;34799;51.440;-2.534;2022-08-19T04:59:49;15.02;;;1.90;;
48987;SDS011;34799;51.440;-2.534;2022-08-19T05:02:21;16.77;;;2.03;;
48987;SDS011;34799;51.440;-2.534;2022-08-19T05:04:58;12.75;;;1.33;;
48987;SDS011;34799;51.440;-2.534;2022-08-19T05:07:27;10.87;;;1.97;;
48987;SDS011;34799;51.440;-2.534;2022-08-19T05:09:55;11.93;;;2.80;;
48987;SDS011;34799;51.440;-2.534;2022-08-19T05:12:22;11.95;;;1.50;;
48987;SDS011;34799;51.440;-2.534;2022-08-19T05:14:50;8.43;;;1.30;;
48987;SDS011;34799;51.440;-2.534;2022-08-19T05:17:18;14.30;;;2.33;;
48987;SDS011;34799;51.440;-2.534;2022-08-19T05:19:54;12.68;;;1.35;;
48987;SDS011;34799;51.440;-2.534;2022-08-19T05:25:08;8.30;;;1.60;;
48987;SDS011;34799;51.440;-2.534;2022-08-19T05:27:46;12.98;;;3.05;;
48987;SDS011;34799;51.440;-2.534;2022-08-19T05:30:14;12.82;;;2.22;;
48987;SDS011;34799;51.440;-2.534;2022-08-19T05:32:42;10.05;;;2.38;;
48987;SDS011;34799;51.440;-2.534;2022-08-19T05:35:09;12.27;;;1.90;;
48987;SDS011;34799;51.440;-2.534;2022-08-19T05:37:39;14.00;;;2.15;;
48987;SDS011;34799;51.440;-2.534;2022-08-19T05:40:06;16.83;;;1.98;;
48987;SDS011;34799;51.440;-2.534;2022-08-19T05:42:34;12.52;;;2.20;;
48987;SDS011;34799;51.440;-2.534;2022-08-19T05:45:02;15.40;;;2.35;;
48987;SDS011;34799;51.440;-2.534;2022-08-19T05:47:31;14.93;;;2.45;;
48987;SDS011;34799;51.440;-2.534;2022-08-19T05:49:58;8.40;;;1.73;;
48987;SDS011;34799;51.440;-2.534;2022-08-19T05:52:28;11.43;;;2.08;;
48987;SDS011;34799;51.440;-2.534;2022-08-19T05:54:56;18.65;;;2.25;;
48987;SDS011;34799;51.440;-2.534;2022-08-19T05:57:23;20.58;;;2.40;;
48987;SDS011;34799;51.440;-2.534;2022-08-19T05:59:51;12.70;;;3.03;;
48987;SDS011;34799;51.440;-2.534;2022-08-19T06:02:19;15.23;;;2.20;;
48987;SDS011;34799;51.440;-2.534;2022-08-19T06:04:47;11.48;;;2.38;;
48987;SDS011;34799;51.440;-2.534;2022-08-19T06:07:14;9.88;;;2.28;;
48987;SDS011;34799;51.440;-2.534;2022-08-19T06:09:41;9.45;;;1.88;;
48987;SDS011;34799;51.440;-2.534;2022-08-19T06:12:08;13.95;;;2.45;;
48987;SDS011;34799;51.440;-2.534;2022-08-19T06:14:36;15.38;;;2.42;;
48987;SDS011;34799;51.440;-2.534;2022-08-19T06:17:03;10.77;;;2.50;;
48987;SDS011;34799;51.440;-2.534;2022-08-19T06:19:32;10.05;;;2.35;;
48987;SDS011;34799;51.440;-2.534;2022-08-19T06:22:00;10.80;;;2.25;;
48987;SDS011;34799;51.440;-2.534;2022-08-19T06:24:27;12.38;;;1.77;;
48987;SDS011;34799;51.440;-2.534;2022-08-19T06:26:56;10.88;;;2.42;;
48987;SDS011;34799;51.440;-2.534;2022-08-19T06:29:26;13.88;;;3.25;;
48987;SDS011;34799;51.440;-2.534;2022-08-19T06:31:55;15.75;;;2.67;;
48987;SDS011;34799;51.440;-2.534;2022-08-19T06:34:26;7.72;;;1.30;;
48987;SDS011;34799;51.440;-2.534;2022-08-19T06:36:55;10.55;;;1.73;;
48987;SDS011;34799;51.440;-2.534;2022-08-19T06:39:26;11.60;;;1.63;;
48987;SDS011;34799;51.440;-2.534;2022-08-19T06:41:56;7.30;;;1.40;;
48987;SDS011;34799;51.440;-2.534;2022-08-19T06:44:29;13.48;;;1.42;;
48987;SDS011;34799;51.440;-2.534;2022-08-19T06:47:05;9.88;;;1.25;;
48987;SDS011;34799;51.440;-2.534;2022-08-19T06:49:35;12.57;;;1.92;;
48987;SDS011;34799;51.440;-2.534;2022-08-19T06:52:03;8.35;;;1.40;;
48987;SDS011;34799;51.440;-2.534;2022-08-19T06:54:31;12.55;;;1.70;;
48987;SDS011;34799;51.440;-2.534;2022-08-19T06:56:58;10.85;;;1.92;;
48987;SDS011;34799;51.440;-2.534;2022-08-19T06:59:29;10.63;;;1.63;;
48987;SDS011;34799;51.440;-2.534;2022-08-19T07:01:59;6.60;;;0.98;;
48987;SDS011;34799;51.440;-2.534;2022-08-19T07:04:30;8.02;;;1.00;;
48987;SDS011;34799;51.440;-2.534;2022-08-19T07:06:59;12.07;;;1.50;;
48987;SDS011;34799;51.440;-2.534;2022-08-19T07:09:37;7.93;;;1.40;;
48987;SDS011;34799;51.440;-2.534;2022-08-19T07:12:07;8.23;;;1.23;;
48987;SDS011;34799;51.440;-2.534;2022-08-19T07:14:37;13.52;;;1.58;;
48987;SDS011;34799;51.440;-2.534;2022-08-19T07:17:07;9.80;;;1.10;;
48987;SDS011;34799;51.440;-2.534;2022-08-19T07:19:37;6.32;;;1.23;;
48987;SDS011;34799;51.440;-2.534;2022-08-19T07:22:07;9.80;;;1.45;;
48987;SDS011;34799;51.440;-2.534;2022-08-19T07:24:37;10.00;;;1.02;;
48987;SDS011;34799;51.440;-2.534;2022-08-19T07:27:05;14.48;;;1.60;;
48987;SDS011;34799;51.440;-2.534;2022-08-19T07:29:34;5.72;;;0.70;;
48987;SDS011;34799;51.440;-2.534;2022-08-19T07:32:03;6.43;;;0.77;;
48987;SDS011;34799;51.440;-2.534;2022-08-19T07:34:33;8.60;;;1.27;;
48987;SDS011;34799;51.440;-2.534;2022-08-19T07:37:04;11.05;;;1.05;;
48987;SDS011;34799;51.440;-2.534;2022-08-19T07:39:34;5.15;;;0.52;;
48987;SDS011;34799;51.440;-2.534;2022-08-19T07:42:05;5.03;;;1.13;;
48987;SDS011;34799;51.440;-2.534;2022-08-19T07:44:34;7.78;;;1.40;;
48987;SDS011;34799;51.440;-2.534;2022-08-19T07:47:03;10.23;;;1.02;;
48987;SDS011;34799;51.440;-2.534;2022-08-19T07:49:30;9.38;;;0.90;;
48987;SDS011;34799;51.440;-2.534;2022-08-19T07:51:59;7.07;;;0.95;;
48987;SDS011;34799;51.440;-2.534;2022-08-19T07:54:29;7.95;;;1.02;;
48987;SDS011;34799;51.440;-2.534;2022-08-19T07:57:02;10.98;;;1.45;;
48987;SDS011;34799;51.440;-2.534;2022-08-19T07:59:29;11.32;;;1.08;;
48987;SDS011;34799;51.440;-2.534;2022-08-19T08:01:57;8.88;;;1.38;;
48987;SDS011;34799;51.440;-2.534;2022-08-19T08:04:28;6.07;;;0.85;;
48987;SDS011;34799;51.440;-2.534;2022-08-19T08:07:15;7.88;;;0.70;;
48987;SDS011;34799;51.440;-2.534;2022-08-19T08:10:01;6.78;;;1.13;;
48987;SDS011;34799;51.440;-2.534;2022-08-19T08:12:33;7.57;;;0.75;;
48987;SDS011;34799;51.440;-2.534;2022-08-19T08:15:06;7.43;;;1.10;;
48987;SDS011;34799;51.440;-2.534;2022-08-19T08:17:36;9.13;;;0.70;;
48987;SDS011;34799;51.440;-2.534;2022-08-19T08:20:04;9.73;;;1.25;;
48987;SDS011;34799;51.440;-2.534;2022-08-19T08:22:33;8.82;;;0.70;;
48987;SDS011;34799;51.440;-2.534;2022-08-19T08:25:20;9.07;;;1.02;;
48987;SDS011;34799;51.440;-2.534;2022-08-19T08:27:50;8.00;;;1.17;;
48987;SDS011;34799;51.440;-2.534;2022-08-19T08:30:21;10.52;;;1.83;;
48987;SDS011;34799;51.440;-2.534;2022-08-19T08:32:51;7.78;;;1.05;;
48987;SDS011;34799;51.440;-2.534;2022-08-19T08:35:20;7.68;;;1.15;;
48987;SDS011;34799;51.440;-2.534;2022-08-19T08:37:48;5.38;;;0.93;;
48987;SDS011;34799;51.440;-2.534;2022-08-19T08:42:57;8.75;;;0.70;;
48987;SDS011;34799;51.440;-2.534;2022-08-19T08:45:33;12.05;;;1.20;;
48987;SDS011;34799;51.440;-2.534;2022-08-19T08:48:15;9.97;;;0.93;;
48987;SDS011;34799;51.440;-2.534;2022-08-19T08:50:50;7.85;;;0.65;;
48987;SDS011;34799;51.440;-2.534;2022-08-19T08:53:21;11.02;;;1.13;;
48987;SDS011;34799;51.440;-2.534;2022-08-19T08:55:49;8.32;;;0.80;;
48987;SDS011;34799;51.440;-2.534;2022-08-19T08:58:21;8.65;;;1.45;;
48987;SDS011;34799;51.440;-2.534;2022-08-19T09:00:57;10.25;;;1.35;;
48987;SDS011;34799;51.440;-2.534;2022-08-19T09:03:25;8.48;;;0.90;;
48987;SDS011;34799;51.440;-2.534;2022-08-19T09:08:30;6.75;;;0.50;;
48987;SDS011;34799;51.440;-2.534;2022-08-19T09:10:59;6.20;;;0.80;;
48987;SDS011;34799;51.440;-2.534;2022-08-19T09:13:37;7.13;;;0.95;;
48987;SDS011;34799;51.440;-2.534;2022-08-19T09:16:17;8.40;;;1.17;;
48987;SDS011;34799;51.440;-2.534;2022-08-19T09:18:48;7.28;;;0.60;;
48987;SDS011;34799;51.440;-2.534;2022-08-19T09:21:20;8.25;;;0.98;;
48987;SDS011;34799;51.440;-2.534;2022-08-19T09:23:52;8.23;;;0.65;;
48987;SDS011;34799;51.440;-2.534;2022-08-19T09:26:20;11.45;;;1.02;;
48987;SDS011;34799;51.440;-2.534;2022-08-19T09:28:49;6.53;;;0.95;;
48987;SDS011;34799;51.440;-2.534;2022-08-19T09:31:20;11.75;;;0.65;;
48987;SDS011;34799;51.440;-2.534;2022-08-19T09:33:50;8.35;;;0.80;;
48987;SDS011;34799;51.440;-2.534;2022-08-19T09:36:18;11.23;;;1.05;;
48987;SDS011;34799;51.440;-2.534;2022-08-19T09:38:48;6.57;;;0.80;;
48987;SDS011;34799;51.440;-2.534;2022-08-19T09:41:17;9.35;;;0.93;;
48987;SDS011;34799;51.440;-2.534;2022-08-19T09:43:47;7.82;;;1.00;;
48987;SDS011;34799;51.440;-2.534;2022-08-19T09:46:18;8.02;;;1.02;;
48987;SDS011;34799;51.440;-2.534;2022-08-19T09:48:47;11.15;;;0.88;;
48987;SDS011;34799;51.440;-2.534;2022-08-19T09:51:19;9.65;;;0.90;;
48987;SDS011;34799;51.440;-2.534;2022-08-19T09:53:49;6.72;;;1.15;;
48987;SDS011;34799;51.440;-2.534;2022-08-19T09:56:18;5.30;;;0.65;;
48987;SDS011;34799;51.440;-2.534;2022-08-19T09:58:46;7.95;;;1.35;;
48987;SDS011;34799;51.440;-2.534;2022-08-19T10:01:15;6.80;;;0.90;;
48987;SDS011;34799;51.440;-2.534;2022-08-19T10:03:47;8.30;;;0.68;;
48987;SDS011;34799;51.440;-2.534;2022-08-19T10:06:16;8.40;;;1.23;;
48987;SDS011;34799;51.440;-2.534;2022-08-19T10:08:44;5.20;;;0.80;;
48987;SDS011;34799;51.440;-2.534;2022-08-19T10:11:12;7.75;;;1.08;;
48987;SDS011;34799;51.440;-2.534;2022-08-19T10:13:43;8.02;;;0.88;;
48987;SDS011;34799;51.440;-2.534;2022-08-19T10:16:12;7.18;;;1.15;;
48987;SDS011;34799;51.440;-2.534;2022-08-19T10:18:42;7.70;;;1.15;;
48987;SDS011;34799;51.440;-2.534;2022-08-19T10:21:11;11.77;;;1.20;;
48987;SDS011;34799;51.440;-2.534;2022-08-19T10:23:44;10.63;;;1.20;;
48987;SDS011;34799;51.440;-2.534;2022-08-19T10:26:13;14.23;;;1.30;;
48987;SDS011;34799;51.440;-2.534;2022-08-19T10:28:45;8.63;;;1.42;;
48987;SDS011;34799;51.440;-2.534;2022-08-19T10:31:14;10.57;;;1.70;;
48987;SDS011;34799;51.440;-2.534;2022-08-19T10:33:47;8.73;;;1.30;;
48987;SDS011;34799;51.440;-2.534;2022-08-19T10:36:15;11.40;;;0.70;;
48987;SDS011;34799;51.440;-2.534;2022-08-19T10:38:47;9.38;;;1.00;;
48987;SDS011;34799;51.440;-2.534;2022-08-19T10:41:21;8.43;;;0.82;;
48987;SDS011;34799;51.440;-2.534;2022-08-19T10:43:58;7.60;;;1.27;;
48987;SDS011;34799;51.440;-2.534;2022-08-19T10:46:27;11.95;;;0.90;;
48987;SDS011;34799;51.440;-2.534;2022-08-19T10:48:59;10.77;;;0.98;;
48987;SDS011;34799;51.440;-2.534;2022-08-19T10:51:27;6.93;;;0.73;;
48987;SDS011;34799;51.440;-2.534;2022-08-19T10:54:14;9.55;;;1.42;;
48987;SDS011;34799;51.440;-2.534;2022-08-19T10:56:42;8.15;;;1.20;;
48987;SDS011;34799;51.440;-2.534;2022-08-19T10:59:20;7.88;;;0.80;;
48987;SDS011;34799;51.440;-2.534;2022-08-19T11:01:59;10.15;;;1.40;;
48987;SDS011;34799;51.440;-2.534;2022-08-19T11:04:28;9.85;;;1.00;;
48987;SDS011;34799;51.440;-2.534;2022-08-19T11:06:55;6.35;;;1.10;;
48987;SDS011;34799;51.440;-2.534;2022-08-19T11:09:23;8.73;;;0.90;;
48987;SDS011;34799;51.440;-2.534;2022-08-19T11:12:00;9.05;;;1.02;;
48987;SDS011;34799;51.440;-2.534;2022-08-19T11:14:27;6.45;;;0.57;;
48987;SDS011;34799;51.440;-2.534;2022-08-19T11:16:56;14.77;;;2.05;;
48987;SDS011;34799;51.440;-2.534;2022-08-19T11:19:23;7.82;;;0.98;;
48987;SDS011;34799;51.440;-2.534;2022-08-19T11:21:52;14.95;;;1.60;;
48987;SDS011;34799;51.440;-2.534;2022-08-19T11:24:22;7.80;;;0.60;;
48987;SDS011;34799;51.440;-2.534;2022-08-19T11:26:52;9.60;;;0.70;;
48987;SDS011;34799;51.440;-2.534;2022-08-19T11:29:25;9.00;;;1.23;;
48987;SDS011;34799;51.440;-2.534;2022-08-19T11:31:54;11.73;;;0.90;;
48987;SDS011;34799;51.440;-2.534;2022-08-19T11:34:22;10.70;;;1.00;;
48987;SDS011;34799;51.440;-2.534;2022-08-19T11:36:51;12.00;;;1.05;;
48987;SDS011;34799;51.440;-2.534;2022-08-19T11:39:20;8.73;;;0.90;;
48987;SDS011;34799;51.440;-2.534;2022-08-19T11:41:48;8.70;;;1.20;;
48987;SDS011;34799;51.440;-2.534;2022-08-19T11:44:15;6.78;;;1.17;;
48987;SDS011;34799;51.440;-2.534;2022-08-19T11:46:44;10.57;;;0.98;;
48987;SDS011;34799;51.440;-2.534;2022-08-19T11:49:13;9.80;;;0.95;;
48987;SDS011;34799;51.440;-2.534;2022-08-19T11:51:42;13.35;;;1.25;;
48987;SDS011;34799;51.440;-2.534;2022-08-19T11:54:12;12.40;;;1.17;;
48987;SDS011;34799;51.440;-2.534;2022-08-19T11:56:40;10.27;;;1.20;;
48987;SDS011;34799;51.440;-2.534;2022-08-19T11:59:08;7.13;;;1.02;;
48987;SDS011;34799;51.440;-2.534;2022-08-19T12:01:40;6.50;;;1.02;;
48987;SDS011;34799;51.440;-2.534;2022-08-19T12:04:08;8.88;;;1.15;;
48987;SDS011;34799;51.440;-2.534;2022-08-19T12:06:37;9.88;;;1.08;;
48987;SDS011;34799;51.440;-2.534;2022-08-19T12:09:06;7.78;;;1.10;;
48987;SDS011;34799;51.440;-2.534;2022-08-19T12:11:35;9.55;;;1.48;;
48987;SDS011;34799;51.440;-2.534;2022-08-19T12:14:05;12.85;;;0.70;;
48987;SDS011;34799;51.440;-2.534;2022-08-19T12:16:35;8.88;;;0.93;;
48987;SDS011;34799;51.440;-2.534;2022-08-19T12:19:05;9.02;;;1.13;;
48987;SDS011;34799;51.440;-2.534;2022-08-19T12:21:34;9.80;;;0.93;;
48987;SDS011;34799;51.440;-2.534;2022-08-19T12:24:02;8.93;;;1.05;;
48987;SDS011;34799;51.440;-2.534;2022-08-19T12:26:35;9.20;;;1.30;;
48987;SDS011;34799;51.440;-2.534;2022-08-19T12:29:02;7.72;;;0.90;;
48987;SDS011;34799;51.440;-2.534;2022-08-19T12:31:30;8.23;;;1.17;;
48987;SDS011;34799;51.440;-2.534;2022-08-19T12:33:59;10.45;;;1.40;;
48987;SDS011;34799;51.440;-2.534;2022-08-19T12:36:27;10.63;;;0.95;;
48987;SDS011;34799;51.440;-2.534;2022-08-19T12:38:54;9.18;;;0.82;;
48987;SDS011;34799;51.440;-2.534;2022-08-19T12:41:26;7.82;;;1.52;;
48987;SDS011;34799;51.440;-2.534;2022-08-19T12:43:53;10.18;;;0.80;;
48987;SDS011;34799;51.440;-2.534;2022-08-19T12:46:20;8.70;;;1.00;;
48987;SDS011;34799;51.440;-2.534;2022-08-19T12:48:47;4.75;;;1.10;;
48987;SDS011;34799;51.440;-2.534;2022-08-19T12:51:15;9.68;;;0.90;;
48987;SDS011;34799;51.440;-2.534;2022-08-19T12:53:46;11.48;;;0.80;;
48987;SDS011;34799;51.440;-2.534;2022-08-19T12:56:14;10.48;;;1.58;;
48987;SDS011;34799;51.440;-2.534;2022-08-19T12:58:42;6.95;;;0.57;;
48987;SDS011;34799;51.440;-2.534;2022-08-19T13:01:11;5.22;;;0.70;;
48987;SDS011;34799;51.440;-2.534;2022-08-19T13:03:40;7.30;;;0.90;;
48987;SDS011;34799;51.440;-2.534;2022-08-19T13:06:07;13.25;;;1.15;;
48987;SDS011;34799;51.440;-2.534;2022-08-19T13:08:36;6.47;;;0.70;;
48987;SDS011;34799;51.440;-2.534;2022-08-19T13:11:09;4.50;;;1.00;;
48987;SDS011;34799;51.440;-2.534;2022-08-19T13:13:42;8.80;;;0.85;;
48987;SDS011;34799;51.440;-2.534;2022-08-19T13:16:10;8.93;;;0.85;;
48987;SDS011;34799;51.440;-2.534;2022-08-19T13:18:40;8.93;;;1.08;;
48987;SDS011;34799;51.440;-2.534;2022-08-19T13:21:09;7.68;;;1.65;;
48987;SDS011;34799;51.440;-2.534;2022-08-19T13:23:40;8.57;;;0.52;;
48987;SDS011;34799;51.440;-2.534;2022-08-19T13:26:08;10.40;;;0.70;;
48987;SDS011;34799;51.440;-2.534;2022-08-19T13:28:37;11.15;;;1.23;;
48987;SDS011;34799;51.440;-2.534;2022-08-19T13:31:24;6.47;;;1.38;;
48987;SDS011;34799;51.440;-2.534;2022-08-19T13:34:11;9.45;;;0.95;;
48987;SDS011;34799;51.440;-2.534;2022-08-19T13:36:39;5.53;;;0.77;;
48987;SDS011;34799;51.440;-2.534;2022-08-19T13:39:06;4.32;;;0.70;;
48987;SDS011;34799;51.440;-2.534;2022-08-19T13:41:36;10.43;;;1.17;;
48987;SDS011;34799;51.440;-2.534;2022-08-19T13:44:04;6.43;;;0.70;;
48987;SDS011;34799;51.440;-2.534;2022-08-19T13:46:34;7.88;;;0.75;;
48987;SDS011;34799;51.440;-2.534;2022-08-19T13:49:01;7.15;;;0.98;;
48987;SDS011;34799;51.440;-2.534;2022-08-19T13:51:28;5.75;;;0.50;;
48987;SDS011;34799;51.440;-2.534;2022-08-19T13:53:55;3.80;;;0.68;;
48987;SDS011;34799;51.440;-2.534;2022-08-19T13:56:22;7.22;;;0.70;;
48987;SDS011;34799;51.440;-2.534;2022-08-19T13:58:53;5.35;;;0.70;;
48987;SDS011;34799;51.440;-2.534;2022-08-19T14:01:20;5.38;;;0.70;;
48987;SDS011;34799;51.440;-2.534;2022-08-19T14:03:48;3.08;;;0.63;;
48987;SDS011;34799;51.440;-2.534;2022-08-19T14:06:15;6.28;;;0.98;;
48987;SDS011;34799;51.440;-2.534;2022-08-19T14:08:43;5.50;;;0.98;;
48987;SDS011;34799;51.440;-2.534;2022-08-19T14:11:11;10.40;;;0.88;;
48987;SDS011;34799;51.440;-2.534;2022-08-19T14:13:38;3.60;;;0.40;;
48987;SDS011;34799;51.440;-2.534;2022-08-19T14:16:10;5.25;;;0.70;;
48987;SDS011;34799;51.440;-2.534;2022-08-19T14:18:39;4.95;;;0.40;;
48987;SDS011;34799;51.440;-2.534;2022-08-19T14:21:06;5.00;;;0.55;;
48987;SDS011;34799;51.440;-2.534;2022-08-19T14:23:39;4.35;;;0.60;;
48987;SDS011;34799;51.440;-2.534;2022-08-19T14:26:10;4.85;;;0.68;;
48987;SDS011;34799;51.440;-2.534;2022-08-19T14:28:40;3.70;;;0.60;;
48987;SDS011;34799;51.440;-2.534;2022-08-19T14:31:09;2.83;;;0.40;;
48987;SDS011;34799;51.440;-2.534;2022-08-19T14:33:41;3.58;;;0.68;;
48987;SDS011;34799;51.440;-2.534;2022-08-19T14:36:08;2.72;;;0.50;;
48987;SDS011;34799;51.440;-2.534;2022-08-19T14:38:35;4.57;;;0.40;;
48987;SDS011;34799;51.440;-2.534;2022-08-19T14:41:08;4.57;;;0.40;;
48987;SDS011;34799;51.440;-2.534;2022-08-19T14:43:51;4.72;;;0.60;;
48987;SDS011;34799;51.440;-2.534;2022-08-19T14:46:20;4.03;;;0.50;;
48987;SDS011;34799;51.440;-2.534;2022-08-19T14:48:50;4.30;;;0.40;;
48987;SDS011;34799;51.440;-2.534;2022-08-19T14:51:19;4.70;;;0.65;;
48987;SDS011;34799;51.440;-2.534;2022-08-19T14:53:47;4.85;;;0.80;;
48987;SDS011;34799;51.440;-2.534;2022-08-19T14:56:17;5.03;;;1.08;;
48987;SDS011;34799;51.440;-2.534;2022-08-19T14:58:47;4.47;;;0.73;;